createdAt,value
2019-05-07T00:01:15.385Z,9.10
2019-05-07T00:03:45.502Z,9.10
2019-05-07T00:06:15.540Z,9.10
2019-05-07T00:08:47.698Z,9.10
2019-05-07T00:11:17.911Z,9.00
2019-05-07T00:13:48.036Z,9.00
2019-05-07T00:16:18.565Z,9.00
2019-05-07T00:18:48.883Z,9.00
2019-05-07T00:21:19.000Z,8.90
2019-05-07T00:23:49.116Z,8.90
2019-05-07T00:26:22.572Z,8.90
2019-05-07T00:28:52.809Z,8.90
2019-05-07T00:31:24.184Z,8.80
2019-05-07T00:33:57.022Z,8.80
2019-05-07T00:36:32.381Z,8.70
2019-05-07T00:39:14.225Z,8.70
2019-05-07T00:41:58.663Z,8.70
2019-05-07T00:44:29.305Z,8.70
2019-05-07T00:47:02.196Z,8.70
2019-05-07T00:49:33.092Z,8.60
2019-05-07T00:52:05.290Z,8.60
2019-05-07T00:54:38.266Z,8.60
2019-05-07T00:57:14.286Z,8.50
2019-05-07T00:59:44.445Z,8.50
2019-05-07T01:02:14.563Z,8.50
2019-05-07T01:04:44.681Z,8.50
2019-05-07T01:07:15.415Z,8.50
2019-05-07T01:09:45.535Z,8.50
2019-05-07T01:12:15.657Z,8.50
2019-05-07T01:14:45.777Z,8.40
2019-05-07T01:17:15.895Z,8.40
2019-05-07T01:19:46.011Z,8.30
2019-05-07T01:22:16.545Z,8.30
2019-05-07T01:24:47.186Z,8.20
2019-05-07T01:27:17.599Z,8.20
2019-05-07T01:29:47.718Z,8.20
2019-05-07T01:32:25.619Z,8.20
2019-05-07T01:34:57.585Z,8.20
2019-05-07T01:37:27.905Z,8.20
2019-05-07T01:39:59.459Z,8.10
2019-05-07T01:42:32.726Z,8.10
2019-05-07T01:45:03.204Z,8.10
2019-05-07T01:47:34.529Z,8.10
2019-05-07T01:50:04.853Z,8.10
2019-05-07T01:52:34.969Z,8.00
2019-05-07T01:55:06.023Z,8.00
2019-05-07T01:57:36.027Z,8.00
2019-05-07T02:00:08.607Z,8.00
2019-05-07T02:02:52.443Z,8.00
2019-05-07T02:05:27.286Z,7.90
2019-05-07T02:07:59.033Z,7.90
2019-05-07T02:10:32.074Z,7.90
2019-05-07T02:13:02.547Z,7.90
2019-05-07T02:15:32.876Z,7.90
2019-05-07T02:18:04.016Z,7.80
2019-05-07T02:20:35.158Z,7.80
2019-05-07T02:23:06.715Z,7.80
2019-05-07T02:25:36.832Z,7.70
2019-05-07T02:28:07.167Z,7.70
2019-05-07T02:30:37.694Z,7.70
2019-05-07T02:33:09.236Z,7.60
2019-05-07T02:35:39.357Z,7.60
2019-05-07T02:38:13.691Z,7.60
2019-05-07T02:40:45.121Z,7.60
2019-05-07T02:43:15.250Z,7.50
2019-05-07T02:46:21.217Z,7.50
2019-05-07T02:48:36.590Z,7.50
2019-05-07T02:51:14.291Z,7.50
2019-05-07T02:53:48.691Z,7.50
2019-05-07T02:56:18.810Z,7.50
2019-05-07T02:58:48.870Z,7.50
2019-05-07T03:01:22.458Z,7.50
2019-05-07T03:03:52.899Z,7.50
2019-05-07T03:06:24.107Z,7.50
2019-05-07T03:08:54.320Z,7.40
2019-05-07T03:11:25.241Z,7.40
2019-05-07T03:13:55.377Z,7.40
2019-05-07T03:16:38.148Z,7.40
2019-05-07T03:18:58.186Z,7.30
2019-05-07T03:21:32.732Z,7.30
2019-05-07T03:24:13.972Z,7.30
2019-05-07T03:26:46.656Z,7.30
2019-05-07T03:29:18.418Z,7.20
2019-05-07T03:31:55.551Z,7.20
2019-05-07T03:34:25.773Z,7.20
2019-05-07T03:36:57.394Z,7.20
2019-05-07T03:39:28.110Z,7.20
2019-05-07T03:41:59.251Z,7.20
2019-05-07T03:44:35.515Z,7.20
2019-05-07T03:47:24.275Z,7.20
2019-05-07T03:49:55.020Z,7.20
2019-05-07T03:52:25.127Z,7.10
2019-05-07T03:54:55.859Z,7.10
2019-05-07T03:57:28.256Z,7.10
2019-05-07T03:59:58.355Z,7.10
2019-05-07T04:02:28.305Z,7.10
2019-05-07T04:04:58.299Z,7.10
2019-05-07T04:07:28.301Z,7.10
2019-05-07T04:09:58.618Z,7.10
2019-05-07T04:12:28.740Z,7.10
2019-05-07T04:14:59.063Z,7.10
2019-05-07T04:17:29.597Z,7.10
2019-05-07T04:19:59.719Z,7.10
2019-05-07T04:22:30.161Z,7.00
2019-05-07T04:25:07.936Z,7.10
2019-05-07T04:27:43.385Z,7.10
2019-05-07T04:30:12.784Z,7.00
2019-05-07T04:32:45.061Z,7.10
2019-05-07T04:35:16.814Z,7.00
2019-05-07T04:37:47.959Z,7.00
2019-05-07T04:40:19.098Z,7.00
2019-05-07T04:42:49.238Z,7.00
2019-05-07T04:45:22.872Z,7.10
2019-05-07T04:47:53.877Z,7.10
2019-05-07T04:50:38.081Z,7.10
2019-05-07T04:52:57.908Z,7.20
2019-05-07T04:55:28.209Z,7.10
2019-05-07T04:57:58.328Z,7.10
2019-05-07T05:00:28.448Z,7.10
2019-05-07T05:03:13.005Z,7.10
2019-05-07T05:05:44.864Z,7.00
2019-05-07T05:08:15.217Z,7.00
2019-05-07T05:10:46.251Z,6.90
2019-05-07T05:13:17.172Z,6.90
2019-05-07T05:15:48.413Z,7.00
2019-05-07T05:18:21.822Z,7.00
2019-05-07T05:21:12.145Z,7.00
2019-05-07T05:23:46.391Z,7.10
2019-05-07T05:26:16.950Z,7.10
2019-05-07T05:28:48.704Z,7.10
2019-05-07T05:31:19.028Z,7.20
2019-05-07T05:33:49.148Z,7.10
2019-05-07T05:36:22.350Z,7.10
2019-05-07T05:38:52.981Z,7.10
2019-05-07T05:41:25.526Z,7.10
2019-05-07T05:43:57.612Z,7.20
2019-05-07T05:46:31.778Z,7.20
2019-05-07T05:49:03.174Z,7.10
2019-05-07T05:51:52.496Z,7.10
2019-05-07T05:54:24.508Z,7.10
2019-05-07T05:56:57.711Z,7.20
2019-05-07T05:59:48.126Z,7.30
2019-05-07T06:02:22.820Z,7.30
2019-05-07T06:04:58.368Z,7.30
2019-05-07T06:07:39.138Z,7.30
2019-05-07T06:10:18.181Z,7.30
2019-05-07T06:12:58.835Z,7.30
2019-05-07T06:15:47.382Z,7.30
2019-05-07T06:18:35.729Z,7.40
2019-05-07T06:21:25.509Z,7.40
2019-05-07T06:24:06.277Z,7.40
2019-05-07T06:26:36.400Z,7.50
2019-05-07T06:29:06.517Z,7.50
2019-05-07T06:31:37.043Z,7.50
2019-05-07T06:34:08.393Z,7.50
2019-05-07T06:36:42.433Z,7.50
2019-05-07T06:39:17.204Z,7.50
2019-05-07T06:42:06.001Z,7.60
2019-05-07T06:44:36.521Z,7.60
2019-05-07T06:47:06.641Z,7.60
2019-05-07T06:49:36.560Z,7.70
2019-05-07T06:52:06.671Z,7.70
2019-05-07T06:54:36.794Z,7.80
2019-05-07T06:57:07.115Z,7.80
2019-05-07T06:59:42.199Z,7.90
2019-05-07T07:02:22.917Z,7.90
2019-05-07T07:04:55.500Z,8.00
2019-05-07T07:07:33.967Z,8.00
2019-05-07T07:10:04.558Z,8.10
2019-05-07T07:12:35.069Z,8.20
2019-05-07T07:15:07.241Z,8.20
2019-05-07T07:17:37.582Z,8.10
2019-05-07T07:20:12.684Z,8.00
2019-05-07T07:22:46.572Z,8.00
2019-05-07T07:25:17.338Z,7.90
2019-05-07T07:27:49.301Z,7.90
2019-05-07T07:30:32.605Z,7.90
2019-05-07T07:33:06.798Z,8.00
2019-05-07T07:35:36.861Z,8.10
2019-05-07T07:38:27.870Z,8.20
2019-05-07T07:41:01.606Z,8.30
2019-05-07T07:43:32.539Z,8.30
2019-05-07T07:46:02.945Z,8.40
2019-05-07T07:48:33.059Z,8.50
2019-05-07T07:51:03.384Z,8.50
2019-05-07T07:53:35.547Z,8.70
2019-05-07T07:56:23.698Z,8.70
2019-05-07T07:58:55.448Z,8.80
2019-05-07T08:01:43.894Z,8.80
2019-05-07T08:04:15.961Z,8.90
2019-05-07T08:06:46.815Z,9.00
2019-05-07T08:09:16.919Z,9.00
2019-05-07T08:11:47.344Z,9.10
2019-05-07T08:14:17.464Z,9.10
2019-05-07T08:16:47.895Z,9.20
2019-05-07T08:19:21.998Z,9.20
2019-05-07T08:21:52.035Z,9.30
2019-05-07T08:24:22.674Z,9.40
2019-05-07T08:26:52.772Z,9.40
2019-05-07T08:29:22.894Z,9.50
2019-05-07T08:31:54.652Z,9.60
2019-05-07T08:34:32.525Z,9.50
2019-05-07T08:37:03.077Z,9.50
2019-05-07T08:39:33.403Z,9.60
2019-05-07T08:42:03.521Z,9.60
2019-05-07T08:44:51.994Z,9.60
2019-05-07T08:47:27.287Z,9.60
2019-05-07T08:49:57.436Z,9.70
2019-05-07T08:52:29.801Z,9.70
2019-05-07T08:55:02.093Z,9.80
2019-05-07T08:57:33.317Z,9.80
2019-05-07T09:00:04.778Z,9.80
2019-05-07T09:02:34.996Z,9.70
2019-05-07T09:05:09.234Z,9.70
2019-05-07T09:07:39.870Z,9.60
2019-05-07T09:10:12.503Z,9.70
2019-05-07T09:12:42.895Z,9.80
2019-05-07T09:15:14.185Z,10.00
2019-05-07T09:17:45.246Z,10.10
2019-05-07T09:20:15.858Z,10.00
2019-05-07T09:22:47.618Z,9.90
2019-05-07T09:25:17.877Z,9.80
2019-05-07T09:27:52.204Z,9.80
2019-05-07T09:30:23.301Z,9.90
2019-05-07T09:32:58.037Z,10.20
2019-05-07T09:35:32.345Z,10.70
2019-05-07T09:38:05.331Z,10.90
2019-05-07T09:40:35.369Z,10.80
2019-05-07T09:43:06.795Z,10.60
2019-05-07T09:45:37.866Z,10.40
2019-05-07T09:48:08.267Z,10.30
2019-05-07T09:50:42.724Z,10.20
2019-05-07T09:53:13.217Z,10.10
2019-05-07T09:55:45.304Z,10.20
2019-05-07T09:58:15.501Z,10.30
2019-05-07T10:00:46.641Z,10.30
2019-05-07T10:03:16.967Z,10.30
2019-05-07T10:05:48.930Z,10.30
2019-05-07T10:08:20.601Z,10.30
2019-05-07T10:10:53.141Z,10.30
2019-05-07T10:13:30.557Z,10.20
2019-05-07T10:16:04.263Z,10.20
2019-05-07T10:18:34.482Z,10.10
2019-05-07T10:21:05.002Z,10.10
2019-05-07T10:23:38.197Z,10.10
2019-05-07T10:26:08.519Z,10.00
2019-05-07T10:28:38.645Z,10.10
2019-05-07T10:31:11.002Z,10.20
2019-05-07T10:33:42.303Z,10.20
2019-05-07T10:36:14.121Z,10.10
2019-05-07T10:38:44.442Z,10.10
2019-05-07T10:41:16.608Z,10.00
2019-05-07T10:43:48.507Z,9.90
2019-05-07T10:46:20.942Z,9.90
2019-05-07T10:48:56.807Z,9.80
2019-05-07T10:51:27.030Z,9.80
2019-05-07T10:53:57.238Z,9.80
2019-05-07T10:56:30.178Z,9.90
2019-05-07T10:59:02.659Z,10.00
2019-05-07T11:01:33.973Z,10.20
2019-05-07T11:04:04.071Z,10.30
2019-05-07T11:06:34.390Z,10.30
2019-05-07T11:09:07.172Z,10.30
2019-05-07T11:11:37.292Z,10.20
2019-05-07T11:14:07.408Z,10.10
2019-05-07T11:16:45.124Z,10.10
2019-05-07T11:19:15.224Z,10.00
2019-05-07T11:21:45.454Z,9.90
2019-05-07T11:24:15.668Z,9.80
2019-05-07T11:26:46.198Z,9.80
2019-05-07T11:29:16.128Z,9.70
2019-05-07T11:31:46.235Z,9.70
2019-05-07T11:34:16.350Z,9.70
2019-05-07T11:36:46.674Z,9.70
2019-05-07T11:39:16.794Z,9.70
2019-05-07T11:41:48.548Z,9.80
2019-05-07T11:44:22.880Z,10.00
2019-05-07T11:47:12.176Z,10.10
2019-05-07T11:49:59.687Z,10.30
2019-05-07T11:52:35.230Z,10.30
2019-05-07T11:55:03.233Z,10.30
2019-05-07T11:57:33.507Z,10.30
2019-05-07T12:00:05.581Z,10.50
2019-05-07T12:02:36.196Z,10.60
2019-05-07T12:05:07.417Z,10.70
2019-05-07T12:07:37.664Z,10.80
2019-05-07T12:10:07.992Z,10.90
2019-05-07T12:12:39.747Z,11.00
2019-05-07T12:15:10.031Z,11.10
2019-05-07T12:17:40.107Z,11.20
2019-05-07T12:20:12.392Z,11.20
2019-05-07T12:22:52.205Z,11.20
2019-05-07T12:25:22.938Z,11.20
2019-05-07T12:27:53.367Z,11.30
2019-05-07T12:30:42.880Z,11.30
2019-05-07T12:33:17.362Z,11.30
2019-05-07T12:35:47.687Z,11.40
2019-05-07T12:38:17.803Z,11.50
2019-05-07T12:40:48.129Z,11.60
2019-05-07T12:43:18.245Z,11.60
2019-05-07T12:45:48.439Z,11.60
2019-05-07T12:48:18.498Z,11.50
2019-05-07T12:50:48.732Z,11.60
2019-05-07T12:53:29.372Z,11.60
2019-05-07T12:56:03.793Z,11.80
2019-05-07T12:58:33.911Z,11.80
2019-05-07T13:01:08.539Z,11.80
2019-05-07T13:03:46.233Z,11.80
2019-05-07T13:06:16.558Z,11.80
2019-05-07T13:08:46.677Z,11.80
2019-05-07T13:11:16.797Z,11.70
2019-05-07T13:13:47.118Z,11.70
2019-05-07T13:16:17.649Z,11.70
2019-05-07T13:18:47.767Z,11.70
2019-05-07T13:21:18.099Z,11.70
2019-05-07T13:23:48.427Z,11.70
2019-05-07T13:26:18.653Z,11.70
2019-05-07T13:28:49.065Z,11.80
2019-05-07T13:31:22.800Z,11.80
2019-05-07T13:33:55.447Z,11.80
2019-05-07T13:36:26.182Z,11.90
2019-05-07T13:39:16.575Z,11.90
2019-05-07T13:41:48.237Z,12.00
2019-05-07T13:44:23.984Z,12.00
2019-05-07T13:46:55.862Z,11.90
2019-05-07T13:49:26.472Z,11.90
2019-05-07T13:52:03.539Z,11.80
2019-05-07T13:54:28.876Z,11.80
2019-05-07T13:56:59.082Z,11.90
2019-05-07T13:59:31.674Z,12.50
2019-05-07T14:02:05.018Z,13.00
2019-05-07T14:04:34.970Z,13.40
2019-05-07T14:07:05.318Z,13.50
2019-05-07T14:09:36.544Z,13.50
2019-05-07T14:12:06.763Z,13.50
2019-05-07T14:14:37.086Z,13.70
2019-05-07T14:17:07.209Z,13.80
2019-05-07T14:19:37.324Z,13.80
2019-05-07T14:22:15.334Z,13.80
2019-05-07T14:24:39.407Z,13.80
2019-05-07T14:27:09.528Z,13.90
2019-05-07T14:29:39.787Z,14.00
2019-05-07T14:32:17.343Z,14.00
2019-05-07T14:34:54.833Z,14.10
2019-05-07T14:37:26.541Z,13.90
2019-05-07T14:39:57.120Z,13.80
2019-05-07T14:42:28.880Z,13.70
2019-05-07T14:44:59.002Z,13.70
2019-05-07T14:47:29.528Z,13.70
2019-05-07T14:50:38.888Z,13.70
2019-05-07T14:53:09.296Z,13.70
2019-05-07T14:55:41.812Z,13.70
2019-05-07T14:58:12.527Z,13.70
2019-05-07T15:00:42.933Z,13.80
2019-05-07T15:03:13.263Z,13.70
2019-05-07T15:05:43.380Z,13.70
2019-05-07T15:08:14.541Z,13.70
2019-05-07T15:10:44.915Z,13.80
2019-05-07T15:13:14.911Z,13.70
2019-05-07T15:15:45.080Z,13.70
2019-05-07T15:18:33.784Z,13.70
2019-05-07T15:21:04.155Z,13.60
2019-05-07T15:23:36.119Z,13.60
2019-05-07T15:26:06.648Z,13.60
2019-05-07T15:28:38.422Z,13.60
2019-05-07T15:31:12.215Z,13.60
2019-05-07T15:33:42.331Z,13.60
2019-05-07T15:36:12.859Z,13.60
2019-05-07T15:38:43.798Z,13.60
2019-05-07T15:41:17.192Z,13.60
2019-05-07T15:43:47.334Z,13.60
2019-05-07T15:46:17.643Z,13.50
2019-05-07T15:48:47.961Z,13.50
2019-05-07T15:51:18.080Z,13.50
2019-05-07T15:53:53.080Z,13.50
2019-05-07T15:56:28.011Z,13.50
2019-05-07T15:58:56.219Z,13.50
2019-05-07T16:01:26.338Z,13.50
2019-05-07T16:03:56.458Z,13.50
2019-05-07T16:06:26.577Z,13.40
2019-05-07T16:08:58.842Z,13.40
2019-05-07T16:11:29.079Z,13.40
2019-05-07T16:14:07.197Z,13.30
2019-05-07T16:16:38.949Z,13.30
2019-05-07T16:19:12.451Z,13.20
2019-05-07T16:21:42.609Z,13.20
2019-05-07T16:24:12.978Z,13.20
2019-05-07T16:26:43.302Z,13.20
2019-05-07T16:29:13.580Z,13.10
2019-05-07T16:31:44.451Z,13.10
2019-05-07T16:34:14.684Z,13.10
2019-05-07T16:36:44.805Z,13.10
2019-05-07T16:39:14.924Z,13.10
2019-05-07T16:41:45.043Z,13.10
2019-05-07T16:44:15.281Z,13.10
2019-05-07T16:46:45.284Z,13.00
2019-05-07T16:49:15.605Z,13.00
2019-05-07T16:51:45.834Z,13.00
2019-05-07T16:54:16.060Z,12.90
2019-05-07T16:57:03.091Z,12.90
2019-05-07T16:59:33.696Z,12.90
2019-05-07T17:02:05.456Z,12.90
2019-05-07T17:04:35.568Z,12.90
2019-05-07T17:07:07.329Z,12.80
2019-05-07T17:09:37.448Z,12.80
2019-05-07T17:12:09.204Z,12.80
2019-05-07T17:14:39.531Z,12.70
2019-05-07T17:17:11.953Z,12.70
2019-05-07T17:19:42.525Z,12.70
2019-05-07T17:22:12.961Z,12.60
2019-05-07T17:24:43.079Z,12.60
2019-05-07T17:27:13.812Z,12.60
2019-05-07T17:29:43.935Z,12.60
2019-05-07T17:32:14.261Z,12.60
2019-05-07T17:34:44.383Z,12.50
2019-05-07T17:37:14.699Z,12.50
2019-05-07T17:39:44.824Z,12.50
2019-05-07T17:42:15.143Z,12.50
2019-05-07T17:44:46.080Z,12.40
2019-05-07T17:47:16.405Z,12.40
2019-05-07T17:49:48.164Z,12.40
2019-05-07T17:52:18.509Z,12.40
2019-05-07T17:54:48.813Z,12.40
2019-05-07T17:57:18.928Z,12.30
2019-05-07T17:59:49.057Z,12.30
2019-05-07T18:02:29.821Z,12.30
2019-05-07T18:05:02.683Z,12.30
2019-05-07T18:07:32.105Z,12.30
2019-05-07T18:10:02.474Z,12.30
2019-05-07T18:12:32.756Z,12.30
2019-05-07T18:15:03.078Z,12.20
2019-05-07T18:17:37.498Z,12.20
2019-05-07T18:20:07.820Z,12.20
2019-05-07T18:22:37.952Z,12.10
2019-05-07T18:25:08.337Z,12.10
2019-05-07T18:27:38.508Z,12.10
2019-05-07T18:30:12.917Z,12.10
2019-05-07T18:32:44.975Z,12.10
2019-05-07T18:35:15.294Z,12.10
2019-05-07T18:37:52.457Z,12.10
2019-05-07T18:40:24.821Z,12.10
2019-05-07T18:42:55.100Z,12.00
2019-05-07T18:45:26.016Z,12.10
2019-05-07T18:47:55.953Z,12.10
2019-05-07T18:50:26.273Z,12.00
2019-05-07T18:52:56.780Z,12.00
2019-05-07T18:55:27.109Z,12.00
2019-05-07T18:57:57.430Z,12.00
2019-05-07T19:00:32.072Z,11.90
2019-05-07T19:03:03.472Z,11.90
2019-05-07T19:05:36.610Z,11.90
2019-05-07T19:08:08.633Z,11.90
2019-05-07T19:10:42.874Z,11.80
2019-05-07T19:13:13.914Z,11.80
2019-05-07T19:15:44.242Z,11.80
2019-05-07T19:18:14.360Z,11.80
2019-05-07T19:20:44.680Z,11.80
2019-05-07T19:23:15.006Z,11.80
2019-05-07T19:25:45.128Z,11.70
2019-05-07T19:28:15.204Z,11.70
2019-05-07T19:30:45.580Z,11.70
2019-05-07T19:33:16.101Z,11.70
2019-05-07T19:35:46.214Z,11.60
2019-05-07T19:38:16.544Z,11.60
2019-05-07T19:40:46.906Z,11.60
2019-05-07T19:43:17.391Z,11.60
2019-05-07T19:45:47.714Z,11.60
2019-05-07T19:48:18.039Z,11.50
2019-05-07T19:50:48.160Z,11.50
2019-05-07T19:53:20.448Z,11.50
2019-05-07T19:56:06.831Z,11.50
2019-05-07T19:58:37.160Z,11.50
2019-05-07T20:01:08.838Z,11.50
2019-05-07T20:03:39.237Z,11.40
2019-05-07T20:06:09.562Z,11.50
2019-05-07T20:08:39.680Z,11.40
2019-05-07T20:11:23.314Z,11.50
2019-05-07T20:13:53.640Z,11.40
2019-05-07T20:16:23.755Z,11.40
2019-05-07T20:18:54.147Z,11.40
2019-05-07T20:21:24.604Z,11.40
2019-05-07T20:23:55.466Z,11.40
2019-05-07T20:26:25.797Z,11.30
2019-05-07T20:28:55.844Z,11.40
2019-05-07T20:31:26.010Z,11.30
2019-05-07T20:33:56.131Z,11.30
2019-05-07T20:36:26.250Z,11.20
2019-05-07T20:38:56.364Z,11.20
2019-05-07T20:41:26.486Z,11.20
2019-05-07T20:43:57.228Z,11.20
2019-05-07T20:46:27.542Z,11.20
2019-05-07T20:48:57.872Z,11.20
2019-05-07T20:51:32.510Z,11.20
2019-05-07T20:54:07.544Z,11.20
2019-05-07T20:56:55.875Z,11.20
2019-05-07T20:59:26.092Z,11.20
2019-05-07T21:01:56.318Z,11.10
2019-05-07T21:04:26.641Z,11.20
2019-05-07T21:06:56.969Z,11.10
2019-05-07T21:09:27.087Z,11.10
2019-05-07T21:11:57.221Z,11.10
2019-05-07T21:14:27.936Z,11.10
2019-05-07T21:16:58.464Z,11.00
2019-05-07T21:19:28.585Z,11.10
2019-05-07T21:21:58.917Z,11.00
2019-05-07T21:24:29.029Z,11.00
2019-05-07T21:26:59.365Z,11.00
2019-05-07T21:29:29.811Z,11.00
2019-05-07T21:32:03.241Z,11.00
2019-05-07T21:34:33.189Z,11.00
2019-05-07T21:37:03.518Z,11.00
2019-05-07T21:39:33.664Z,11.00
2019-05-07T21:42:03.751Z,10.90
2019-05-07T21:44:34.077Z,11.00
2019-05-07T21:47:04.195Z,10.90
2019-05-07T21:49:34.318Z,10.90
2019-05-07T21:52:04.640Z,10.90
2019-05-07T21:54:37.215Z,10.90
2019-05-07T21:57:12.801Z,10.90
2019-05-07T21:59:43.599Z,10.90
2019-05-07T22:02:18.222Z,10.90
2019-05-07T22:04:48.545Z,10.90
2019-05-07T22:07:18.873Z,10.80
2019-05-07T22:09:49.606Z,10.80
2019-05-07T22:12:19.934Z,10.80
2019-05-07T22:14:51.688Z,10.80
2019-05-07T22:17:22.039Z,10.80
2019-05-07T22:19:52.561Z,10.80
2019-05-07T22:22:24.323Z,10.80
2019-05-07T22:24:54.622Z,10.70
2019-05-07T22:27:24.744Z,10.70
2019-05-07T22:29:55.063Z,10.70
2019-05-07T22:32:43.756Z,10.70
2019-05-07T22:35:28.074Z,10.70
2019-05-07T22:37:58.399Z,10.70
2019-05-07T22:40:28.517Z,10.70
2019-05-07T22:42:58.633Z,10.70
2019-05-07T22:45:28.958Z,10.70
2019-05-07T22:47:59.076Z,10.70
2019-05-07T22:50:29.404Z,10.60
2019-05-07T22:53:01.871Z,10.60
2019-05-07T22:55:32.684Z,10.60
2019-05-07T22:58:07.358Z,10.60
2019-05-07T23:00:39.094Z,10.60
2019-05-07T23:03:12.695Z,10.60
2019-05-07T23:05:44.899Z,10.60
2019-05-07T23:08:14.387Z,10.60
2019-05-07T23:10:44.754Z,10.50
2019-05-07T23:13:15.014Z,10.50
2019-05-07T23:15:45.133Z,10.50
2019-05-07T23:18:15.458Z,10.50
2019-05-07T23:20:45.678Z,10.50
2019-05-07T23:23:15.907Z,10.50
2019-05-07T23:25:46.032Z,10.50
2019-05-07T23:28:16.342Z,10.40
2019-05-07T23:30:46.432Z,10.40
2019-05-07T23:33:18.238Z,10.40
2019-05-07T23:35:48.543Z,10.40
2019-05-07T23:38:18.662Z,10.40
2019-05-07T23:41:06.396Z,10.40
2019-05-07T23:43:36.718Z,10.40
2019-05-07T23:46:07.042Z,10.40
2019-05-07T23:48:37.161Z,10.40
2019-05-07T23:51:07.280Z,10.40
2019-05-07T23:53:37.403Z,10.40
2019-05-07T23:56:07.522Z,10.40
2019-05-07T23:58:37.640Z,10.30
